Terminal Aerodrome Forecast
Issued by NWS Charleston, SC

Current Version | Previous Version | Text Only | Print | Product List | Glossary On
Versions: 1 2 3 4 5 6 7 8 9 10 11 12 13 14 15 16 17 18 19 20 21 22 23 24 25 26
000
FTUS42 KCHS 030322 AAB
TAFCHS
TAF AMD
KCHS 030322Z 0303/0324 07010KT P6SM OVC035
     FM030600 06010KT P6SM SCT015 OVC030
     FM030900 05010KT 6SM BR SCT008 OVC015
     FM031800 08008KT P6SM SCT008 BKN010=

USA.gov is the U.S. government's official web portal to all federal, state and local government web resources and services.